sensor_id;sensor_type;location;lat;lon;timestamp;pressure;altitude;pressure_sealevel;temperature;humidity
23172;BME280;11754;42.664;23.594;2024-02-16T00:00:09;96008.53;;;2.02;70.46
23172;BME280;11754;42.664;23.594;2024-02-16T00:02:39;95991.69;;;2.08;69.95
23172;BME280;11754;42.664;23.594;2024-02-16T00:05:06;96004.38;;;2.12;69.97
23172;BME280;11754;42.664;23.594;2024-02-16T00:07:33;95996.88;;;2.08;70.07
23172;BME280;11754;42.664;23.594;2024-02-16T00:09:59;96011.59;;;1.82;71.16
23172;BME280;11754;42.664;23.594;2024-02-16T00:12:25;95996.00;;;1.82;71.15
23172;BME280;11754;42.664;23.594;2024-02-16T00:29:22;96008.31;;;1.38;72.95
23172;BME280;11754;42.664;23.594;2024-02-16T00:31:48;96004.78;;;1.39;72.70
23172;BME280;11754;42.664;23.594;2024-02-16T00:34:14;95991.19;;;1.22;73.17
23172;BME280;11754;42.664;23.594;2024-02-16T00:36:39;96000.75;;;1.21;73.28
23172;BME280;11754;42.664;23.594;2024-02-16T00:39:05;96011.03;;;1.23;73.11
23172;BME280;11754;42.664;23.594;2024-02-16T00:41:30;96012.94;;;1.06;73.99
23172;BME280;11754;42.664;23.594;2024-02-16T00:43:56;96004.78;;;0.98;74.18
23172;BME280;11754;42.664;23.594;2024-02-16T00:46:22;95993.75;;;0.94;74.15
23172;BME280;11754;42.664;23.594;2024-02-16T00:48:52;96008.84;;;1.16;73.69
23172;BME280;11754;42.664;23.594;2024-02-16T00:51:17;96010.69;;;1.14;73.63
23172;BME280;11754;42.664;23.594;2024-02-16T00:53:43;96003.19;;;1.37;72.92
23172;BME280;11754;42.664;23.594;2024-02-16T00:56:08;96018.53;;;1.41;72.13
23172;BME280;11754;42.664;23.594;2024-02-16T00:58:35;96004.22;;;1.49;71.61
23172;BME280;11754;42.664;23.594;2024-02-16T01:01:00;96012.53;;;1.27;72.49
23172;BME280;11754;42.664;23.594;2024-02-16T01:03:25;96005.50;;;1.00;73.38
23172;BME280;11754;42.664;23.594;2024-02-16T01:05:52;96018.66;;;1.26;72.74
23172;BME280;11754;42.664;23.594;2024-02-16T01:08:18;96007.38;;;1.12;72.84
23172;BME280;11754;42.664;23.594;2024-02-16T01:10:43;96004.19;;;1.07;72.83
23172;BME280;11754;42.664;23.594;2024-02-16T01:13:09;96024.53;;;1.01;73.36
23172;BME280;11754;42.664;23.594;2024-02-16T01:15:35;96005.25;;;0.90;73.20
23172;BME280;11754;42.664;23.594;2024-02-16T01:18:02;96013.56;;;1.10;73.21
23172;BME280;11754;42.664;23.594;2024-02-16T01:20:28;96006.91;;;1.06;72.99
23172;BME280;11754;42.664;23.594;2024-02-16T01:22:56;95996.69;;;1.03;72.95
23172;BME280;11754;42.664;23.594;2024-02-16T01:25:21;96014.78;;;1.04;73.20
23172;BME280;11754;42.664;23.594;2024-02-16T01:27:47;96009.13;;;1.12;72.62
23172;BME280;11754;42.664;23.594;2024-02-16T01:30:12;96004.19;;;1.07;72.97
23172;BME280;11754;42.664;23.594;2024-02-16T01:32:39;96001.34;;;1.12;72.46
23172;BME280;11754;42.664;23.594;2024-02-16T01:35:05;95997.16;;;1.09;72.36
23172;BME280;11754;42.664;23.594;2024-02-16T01:37:31;96004.94;;;1.24;72.54
23172;BME280;11754;42.664;23.594;2024-02-16T01:39:57;96001.84;;;1.31;71.91
23172;BME280;11754;42.664;23.594;2024-02-16T01:42:22;96004.53;;;1.30;71.72
23172;BME280;11754;42.664;23.594;2024-02-16T01:44:48;95998.91;;;1.23;71.50
23172;BME280;11754;42.664;23.594;2024-02-16T01:47:14;95998.22;;;1.34;71.38
23172;BME280;11754;42.664;23.594;2024-02-16T01:49:40;95992.34;;;1.03;72.58
23172;BME280;11754;42.664;23.594;2024-02-16T01:52:06;95988.81;;;1.04;72.53
23172;BME280;11754;42.664;23.594;2024-02-16T01:54:32;95993.06;;;1.19;72.28
23172;BME280;11754;42.664;23.594;2024-02-16T01:56:58;95986.59;;;1.12;72.23
23172;BME280;11754;42.664;23.594;2024-02-16T01:59:24;95989.56;;;0.92;73.08
23172;BME280;11754;42.664;23.594;2024-02-16T02:01:50;95983.28;;;0.82;73.21
23172;BME280;11754;42.664;23.594;2024-02-16T02:04:16;95986.88;;;0.79;73.11
23172;BME280;11754;42.664;23.594;2024-02-16T02:06:42;95986.53;;;0.71;73.25
23172;BME280;11754;42.664;23.594;2024-02-16T02:09:07;95987.34;;;0.71;73.70
23172;BME280;11754;42.664;23.594;2024-02-16T02:11:34;95990.72;;;0.59;74.28
23172;BME280;11754;42.664;23.594;2024-02-16T02:13:59;95976.13;;;0.71;73.80
23172;BME280;11754;42.664;23.594;2024-02-16T02:16:25;95984.41;;;0.63;73.56
23172;BME280;11754;42.664;23.594;2024-02-16T02:18:52;95990.16;;;0.54;74.07
23172;BME280;11754;42.664;23.594;2024-02-16T02:21:17;95989.78;;;0.75;73.39
23172;BME280;11754;42.664;23.594;2024-02-16T02:23:43;95991.44;;;0.61;73.57
23172;BME280;11754;42.664;23.594;2024-02-16T02:26:09;95984.75;;;0.57;73.61
23172;BME280;11754;42.664;23.594;2024-02-16T02:28:34;95978.66;;;0.44;74.37
23172;BME280;11754;42.664;23.594;2024-02-16T02:31:00;95974.84;;;0.64;73.42
23172;BME280;11754;42.664;23.594;2024-02-16T02:33:25;95980.22;;;0.61;73.29
23172;BME280;11754;42.664;23.594;2024-02-16T02:35:50;95974.75;;;0.22;74.34
23172;BME280;11754;42.664;23.594;2024-02-16T02:38:16;95984.22;;;0.38;74.28
23172;BME280;11754;42.664;23.594;2024-02-16T02:40:42;95987.44;;;0.27;74.73
23172;BME280;11754;42.664;23.594;2024-02-16T02:43:07;95992.34;;;0.17;75.27
23172;BME280;11754;42.664;23.594;2024-02-16T02:45:33;95984.72;;;0.14;75.60
23172;BME280;11754;42.664;23.594;2024-02-16T02:47:59;95982.25;;;0.27;75.02
23172;BME280;11754;42.664;23.594;2024-02-16T02:50:24;95982.13;;;0.14;75.05
23172;BME280;11754;42.664;23.594;2024-02-16T02:52:50;95981.78;;;0.20;74.72
23172;BME280;11754;42.664;23.594;2024-02-16T03:08:48;96001.00;;;0.02;76.33
23172;BME280;11754;42.664;23.594;2024-02-16T03:11:14;95997.03;;;0.11;75.99
23172;BME280;11754;42.664;23.594;2024-02-16T03:13:39;95993.81;;;0.21;75.62
23172;BME280;11754;42.664;23.594;2024-02-16T03:16:05;95996.44;;;0.36;74.86
23172;BME280;11754;42.664;23.594;2024-02-16T03:18:31;95996.63;;;0.33;74.51
23172;BME280;11754;42.664;23.594;2024-02-16T03:20:57;96001.19;;;0.29;74.15
23172;BME280;11754;42.664;23.594;2024-02-16T03:23:23;95996.06;;;0.28;74.20
23172;BME280;11754;42.664;23.594;2024-02-16T03:25:48;95993.81;;;0.21;74.25
23172;BME280;11754;42.664;23.594;2024-02-16T03:28:14;95993.53;;;0.12;74.44
23172;BME280;11754;42.664;23.594;2024-02-16T03:30:41;95995.31;;;0.11;74.64
23172;BME280;11754;42.664;23.594;2024-02-16T03:33:06;95994.38;;;0.12;74.33
23172;BME280;11754;42.664;23.594;2024-02-16T03:35:33;95996.75;;;0.01;74.35
23172;BME280;11754;42.664;23.594;2024-02-16T03:37:58;95992.66;;;-0.17;74.53
23172;BME280;11754;42.664;23.594;2024-02-16T03:47:07;96005.47;;;0.00;74.12
23172;BME280;11754;42.664;23.594;2024-02-16T03:49:33;95998.59;;;-0.01;74.21
23172;BME280;11754;42.664;23.594;2024-02-16T03:51:59;96002.13;;;-0.02;73.70
23172;BME280;11754;42.664;23.594;2024-02-16T03:54:25;96004.69;;;-0.16;74.54
23172;BME280;11754;42.664;23.594;2024-02-16T03:56:54;96005.34;;;-0.13;74.88
23172;BME280;11754;42.664;23.594;2024-02-16T03:59:19;96002.63;;;-0.11;74.80
23172;BME280;11754;42.664;23.594;2024-02-16T04:01:45;95995.53;;;-0.08;74.49
23172;BME280;11754;42.664;23.594;2024-02-16T04:04:11;95996.50;;;-0.25;75.07
23172;BME280;11754;42.664;23.594;2024-02-16T04:06:38;96017.06;;;-0.21;75.07
23172;BME280;11754;42.664;23.594;2024-02-16T04:09:03;96003.84;;;-0.17;75.24
23172;BME280;11754;42.664;23.594;2024-02-16T04:11:31;96007.06;;;-0.28;75.73
23172;BME280;11754;42.664;23.594;2024-02-16T04:13:57;96012.56;;;-0.34;75.95
23172;BME280;11754;42.664;23.594;2024-02-16T04:16:22;95999.28;;;-0.43;76.24
23172;BME280;11754;42.664;23.594;2024-02-16T04:18:50;96005.13;;;-0.40;75.95
23172;BME280;11754;42.664;23.594;2024-02-16T04:21:15;95997.56;;;-0.43;76.23
23172;BME280;11754;42.664;23.594;2024-02-16T04:23:41;96002.16;;;-0.48;76.36
23172;BME280;11754;42.664;23.594;2024-02-16T04:26:07;96011.94;;;-0.53;76.48
23172;BME280;11754;42.664;23.594;2024-02-16T04:28:32;96007.97;;;-0.29;75.88
23172;BME280;11754;42.664;23.594;2024-02-16T04:30:57;96002.03;;;-0.31;76.05
23172;BME280;11754;42.664;23.594;2024-02-16T04:33:23;96009.97;;;-0.18;74.96
23172;BME280;11754;42.664;23.594;2024-02-16T04:35:49;96011.91;;;-0.21;74.62
23172;BME280;11754;42.664;23.594;2024-02-16T04:38:16;96013.88;;;-0.11;74.55
23172;BME280;11754;42.664;23.594;2024-02-16T04:40:42;96015.81;;;-0.14;74.83
23172;BME280;11754;42.664;23.594;2024-02-16T04:43:07;96017.97;;;-0.07;74.00
23172;BME280;11754;42.664;23.594;2024-02-16T04:45:32;96027.25;;;-0.18;74.04
23172;BME280;11754;42.664;23.594;2024-02-16T04:48:05;96009.53;;;-0.26;74.72
23172;BME280;11754;42.664;23.594;2024-02-16T04:50:32;96012.06;;;-0.25;74.56
23172;BME280;11754;42.664;23.594;2024-02-16T04:52:57;96006.72;;;-0.21;75.05
23172;BME280;11754;42.664;23.594;2024-02-16T04:55:22;96014.13;;;-0.15;74.65
23172;BME280;11754;42.664;23.594;2024-02-16T04:57:48;96011.34;;;-0.12;74.17
23172;BME280;11754;42.664;23.594;2024-02-16T05:00:14;96008.38;;;-0.36;75.06
23172;BME280;11754;42.664;23.594;2024-02-16T05:02:39;96003.63;;;-0.44;75.80
23172;BME280;11754;42.664;23.594;2024-02-16T05:05:04;96020.97;;;-0.60;76.41
23172;BME280;11754;42.664;23.594;2024-02-16T05:14:37;96016.28;;;-0.54;76.99
23172;BME280;11754;42.664;23.594;2024-02-16T05:17:03;96015.34;;;-0.37;76.52
23172;BME280;11754;42.664;23.594;2024-02-16T05:19:32;96022.78;;;-0.31;75.88
23172;BME280;11754;42.664;23.594;2024-02-16T05:21:57;96019.69;;;-0.37;76.54
23172;BME280;11754;42.664;23.594;2024-02-16T05:24:23;96019.94;;;-0.42;76.71
23172;BME280;11754;42.664;23.594;2024-02-16T05:26:48;96028.44;;;-0.24;76.18
23172;BME280;11754;42.664;23.594;2024-02-16T05:29:16;96028.56;;;-0.11;75.82
23172;BME280;11754;42.664;23.594;2024-02-16T05:31:41;96026.84;;;0.04;74.65
23172;BME280;11754;42.664;23.594;2024-02-16T05:34:07;96033.59;;;-0.08;74.95
23172;BME280;11754;42.664;23.594;2024-02-16T05:36:32;96024.91;;;-0.07;75.04
23172;BME280;11754;42.664;23.594;2024-02-16T05:39:01;96032.19;;;0.16;74.72
23172;BME280;11754;42.664;23.594;2024-02-16T05:41:35;96046.09;;;0.15;74.20
23172;BME280;11754;42.664;23.594;2024-02-16T05:44:02;96049.19;;;0.06;74.74
23172;BME280;11754;42.664;23.594;2024-02-16T05:46:28;96044.19;;;0.03;74.25
23172;BME280;11754;42.664;23.594;2024-02-16T05:48:53;96030.88;;;0.09;74.44
23172;BME280;11754;42.664;23.594;2024-02-16T05:51:19;96050.63;;;-0.04;75.28
23172;BME280;11754;42.664;23.594;2024-02-16T05:53:44;96052.72;;;0.05;75.41
23172;BME280;11754;42.664;23.594;2024-02-16T05:56:12;96052.03;;;0.32;74.81
23172;BME280;11754;42.664;23.594;2024-02-16T05:58:37;96053.28;;;0.55;73.96
23172;BME280;11754;42.664;23.594;2024-02-16T06:04:29;96058.38;;;0.42;74.30
23172;BME280;11754;42.664;23.594;2024-02-16T06:06:54;96051.53;;;0.55;74.14
23172;BME280;11754;42.664;23.594;2024-02-16T06:09:20;96060.63;;;0.62;73.86
23172;BME280;11754;42.664;23.594;2024-02-16T06:11:45;96059.69;;;0.78;73.71
23172;BME280;11754;42.664;23.594;2024-02-16T06:14:10;96052.09;;;0.89;73.10
23172;BME280;11754;42.664;23.594;2024-02-16T06:16:36;96058.22;;;0.88;73.25
23172;BME280;11754;42.664;23.594;2024-02-16T06:19:01;96062.13;;;0.95;73.05
23172;BME280;11754;42.664;23.594;2024-02-16T06:21:27;96067.31;;;1.09;72.93
23172;BME280;11754;42.664;23.594;2024-02-16T06:23:52;96052.38;;;1.13;72.57
23172;BME280;11754;42.664;23.594;2024-02-16T06:26:17;96058.09;;;1.32;71.94
23172;BME280;11754;42.664;23.594;2024-02-16T06:32:04;96063.56;;;1.69;70.16
23172;BME280;11754;42.664;23.594;2024-02-16T06:34:31;96063.78;;;1.93;70.52
23172;BME280;11754;42.664;23.594;2024-02-16T06:36:57;96071.66;;;2.19;69.22
23172;BME280;11754;42.664;23.594;2024-02-16T06:39:22;96066.63;;;2.15;69.09
23172;BME280;11754;42.664;23.594;2024-02-16T06:41:48;96066.88;;;2.38;68.17
23172;BME280;11754;42.664;23.594;2024-02-16T06:44:15;96058.16;;;2.52;67.86
23172;BME280;11754;42.664;23.594;2024-02-16T06:46:41;96063.56;;;2.36;67.68
23172;BME280;11754;42.664;23.594;2024-02-16T06:49:07;96063.41;;;2.64;67.51
23172;BME280;11754;42.664;23.594;2024-02-16T06:51:32;96068.19;;;2.96;66.35
23172;BME280;11754;42.664;23.594;2024-02-16T06:53:58;96049.72;;;3.12;65.43
23172;BME280;11754;42.664;23.594;2024-02-16T06:56:23;96065.84;;;3.17;65.40
23172;BME280;11754;42.664;23.594;2024-02-16T07:02:01;96065.44;;;3.36;65.28
23172;BME280;11754;42.664;23.594;2024-02-16T07:04:26;96062.28;;;3.44;64.71
23172;BME280;11754;42.664;23.594;2024-02-16T07:06:52;96071.81;;;3.69;64.82
23172;BME280;11754;42.664;23.594;2024-02-16T07:09:17;96070.69;;;3.84;64.39
23172;BME280;11754;42.664;23.594;2024-02-16T07:11:43;96071.94;;;3.91;64.03
23172;BME280;11754;42.664;23.594;2024-02-16T07:14:11;96066.19;;;4.10;63.45
23172;BME280;11754;42.664;23.594;2024-02-16T07:16:38;96063.03;;;3.70;63.47
23172;BME280;11754;42.664;23.594;2024-02-16T07:19:03;96059.31;;;4.09;63.54
23172;BME280;11754;42.664;23.594;2024-02-16T07:21:30;96065.16;;;4.13;63.61
23172;BME280;11754;42.664;23.594;2024-02-16T07:23:55;96073.38;;;4.54;62.98
23172;BME280;11754;42.664;23.594;2024-02-16T07:26:21;96061.56;;;4.84;61.42
23172;BME280;11754;42.664;23.594;2024-02-16T07:28:47;96051.81;;;4.97;61.66
23172;BME280;11754;42.664;23.594;2024-02-16T07:31:12;96068.59;;;5.17;61.63
23172;BME280;11754;42.664;23.594;2024-02-16T07:33:39;96062.75;;;5.36;61.31
23172;BME280;11754;42.664;23.594;2024-02-16T07:36:05;96056.31;;;5.51;60.79
23172;BME280;11754;42.664;23.594;2024-02-16T07:38:31;96058.50;;;6.01;58.66
23172;BME280;11754;42.664;23.594;2024-02-16T07:40:56;96065.88;;;6.07;58.44
23172;BME280;11754;42.664;23.594;2024-02-16T07:47:02;96059.88;;;6.69;56.14
23172;BME280;11754;42.664;23.594;2024-02-16T07:49:28;96057.88;;;7.04;55.78
23172;BME280;11754;42.664;23.594;2024-02-16T07:51:54;96059.44;;;6.85;55.69
23172;BME280;11754;42.664;23.594;2024-02-16T07:54:20;96059.75;;;7.53;54.12
23172;BME280;11754;42.664;23.594;2024-02-16T07:56:46;96051.75;;;7.55;54.14
23172;BME280;11754;42.664;23.594;2024-02-16T07:59:11;96059.63;;;8.24;52.32
23172;BME280;11754;42.664;23.594;2024-02-16T08:01:37;96042.44;;;8.78;50.21
23172;BME280;11754;42.664;23.594;2024-02-16T08:04:02;96037.72;;;8.92;49.84
23172;BME280;11754;42.664;23.594;2024-02-16T08:06:28;96052.28;;;9.33;48.88
23172;BME280;11754;42.664;23.594;2024-02-16T08:12:15;96052.97;;;10.36;46.51
23172;BME280;11754;42.664;23.594;2024-02-16T08:14:41;96048.81;;;10.51;46.59
23172;BME280;11754;42.664;23.594;2024-02-16T08:17:08;96049.91;;;11.10;44.29
23172;BME280;11754;42.664;23.594;2024-02-16T08:19:35;96059.41;;;11.47;42.67
23172;BME280;11754;42.664;23.594;2024-02-16T08:22:01;96043.69;;;11.45;42.28
23172;BME280;11754;42.664;23.594;2024-02-16T08:24:27;96048.44;;;11.07;42.97
23172;BME280;11754;42.664;23.594;2024-02-16T08:26:53;96055.56;;;10.89;43.44
23172;BME280;11754;42.664;23.594;2024-02-16T08:29:18;96045.06;;;10.71;44.23
23172;BME280;11754;42.664;23.594;2024-02-16T08:31:47;96045.44;;;12.05;41.97
23172;BME280;11754;42.664;23.594;2024-02-16T08:34:13;96048.16;;;12.54;40.92
23172;BME280;11754;42.664;23.594;2024-02-16T08:36:43;96048.16;;;12.46;41.10
23172;BME280;11754;42.664;23.594;2024-02-16T08:39:09;96040.91;;;12.64;40.04
23172;BME280;11754;42.664;23.594;2024-02-16T08:41:37;96041.84;;;13.12;38.38
23172;BME280;11754;42.664;23.594;2024-02-16T08:44:02;96034.28;;;12.77;38.91
23172;BME280;11754;42.664;23.594;2024-02-16T08:46:28;96041.88;;;12.71;38.79
23172;BME280;11754;42.664;23.594;2024-02-16T08:48:55;96043.88;;;13.02;39.40
23172;BME280;11754;42.664;23.594;2024-02-16T08:51:20;96038.19;;;13.38;38.88
23172;BME280;11754;42.664;23.594;2024-02-16T08:53:45;96035.56;;;12.15;40.07
23172;BME280;11754;42.664;23.594;2024-02-16T08:56:11;96030.59;;;13.10;38.23
23172;BME280;11754;42.664;23.594;2024-02-16T08:58:37;96025.72;;;14.94;36.19
23172;BME280;11754;42.664;23.594;2024-02-16T09:01:02;96033.50;;;15.78;35.15
23172;BME280;11754;42.664;23.594;2024-02-16T09:03:29;96030.16;;;15.17;35.10
23172;BME280;11754;42.664;23.594;2024-02-16T09:05:54;96032.22;;;15.59;34.71
23172;BME280;11754;42.664;23.594;2024-02-16T09:12:18;96038.16;;;17.34;31.48
23172;BME280;11754;42.664;23.594;2024-02-16T09:14:44;96034.09;;;18.82;30.37
23172;BME280;11754;42.664;23.594;2024-02-16T09:17:09;96021.16;;;20.17;28.41
23172;BME280;11754;42.664;23.594;2024-02-16T09:19:35;96017.28;;;22.31;25.35
23172;BME280;11754;42.664;23.594;2024-02-16T09:22:00;96024.59;;;21.51;25.33
23172;BME280;11754;42.664;23.594;2024-02-16T09:24:31;96022.25;;;20.41;26.73
23172;BME280;11754;42.664;23.594;2024-02-16T09:27:03;96015.97;;;22.04;24.92
23172;BME280;11754;42.664;23.594;2024-02-16T09:29:30;96015.75;;;24.65;23.15
23172;BME280;11754;42.664;23.594;2024-02-16T09:31:55;95996.84;;;27.63;20.17
23172;BME280;11754;42.664;23.594;2024-02-16T09:34:21;96007.09;;;28.66;19.00
23172;BME280;11754;42.664;23.594;2024-02-16T09:36:46;95998.25;;;29.62;18.18
23172;BME280;11754;42.664;23.594;2024-02-16T09:39:12;96000.19;;;30.97;17.30
23172;BME280;11754;42.664;23.594;2024-02-16T09:41:43;95996.88;;;32.21;16.32
23172;BME280;11754;42.664;23.594;2024-02-16T09:44:14;95988.28;;;32.95;15.58
23172;BME280;11754;42.664;23.594;2024-02-16T09:46:39;96001.56;;;33.86;14.70
23172;BME280;11754;42.664;23.594;2024-02-16T09:52:26;95981.25;;;33.59;14.05
23172;BME280;11754;42.664;23.594;2024-02-16T09:54:52;95978.69;;;32.78;14.74
23172;BME280;11754;42.664;23.594;2024-02-16T09:57:18;95979.22;;;35.79;13.47
23172;BME280;11754;42.664;23.594;2024-02-16T09:59:44;95977.25;;;34.39;14.08
23172;BME280;11754;42.664;23.594;2024-02-16T10:02:09;95985.28;;;35.22;13.70
23172;BME280;11754;42.664;23.594;2024-02-16T10:04:35;95969.03;;;35.71;13.03
23172;BME280;11754;42.664;23.594;2024-02-16T10:07:01;95973.84;;;31.21;14.50
23172;BME280;11754;42.664;23.594;2024-02-16T10:09:27;95976.88;;;30.80;15.07
23172;BME280;11754;42.664;23.594;2024-02-16T10:11:57;95958.66;;;34.78;13.06
23172;BME280;11754;42.664;23.594;2024-02-16T10:14:23;95947.50;;;32.42;14.03
23172;BME280;11754;42.664;23.594;2024-02-16T10:17:02;95955.97;;;34.50;13.34
23172;BME280;11754;42.664;23.594;2024-02-16T10:19:29;95944.97;;;36.82;11.97
23172;BME280;11754;42.664;23.594;2024-02-16T10:22:11;95944.00;;;33.77;13.48
23172;BME280;11754;42.664;23.594;2024-02-16T10:24:36;95937.09;;;32.01;14.26
23172;BME280;11754;42.664;23.594;2024-02-16T10:27:13;95926.41;;;32.04;14.82
23172;BME280;11754;42.664;23.594;2024-02-16T10:29:40;95923.25;;;34.67;13.05
23172;BME280;11754;42.664;23.594;2024-02-16T10:32:07;95927.47;;;33.96;13.47
23172;BME280;11754;42.664;23.594;2024-02-16T10:34:33;95919.69;;;35.03;13.32
23172;BME280;11754;42.664;23.594;2024-02-16T10:37:00;95926.47;;;38.37;11.31
23172;BME280;11754;42.664;23.594;2024-02-16T10:39:26;95913.25;;;38.52;11.68
23172;BME280;11754;42.664;23.594;2024-02-16T10:41:53;95888.22;;;42.27;9.90
23172;BME280;11754;42.664;23.594;2024-02-16T10:44:19;95902.00;;;43.98;8.84
23172;BME280;11754;42.664;23.594;2024-02-16T10:46:45;95897.97;;;43.30;8.87
23172;BME280;11754;42.664;23.594;2024-02-16T10:49:10;95903.44;;;42.01;9.06
23172;BME280;11754;42.664;23.594;2024-02-16T10:51:40;95896.69;;;41.54;9.25
23172;BME280;11754;42.664;23.594;2024-02-16T10:54:08;95908.66;;;40.22;9.90
23172;BME280;11754;42.664;23.594;2024-02-16T10:56:36;95898.97;;;40.03;10.00
23172;BME280;11754;42.664;23.594;2024-02-16T10:59:07;95877.72;;;41.25;9.58
23172;BME280;11754;42.664;23.594;2024-02-16T11:01:41;95890.78;;;39.95;9.99
23172;BME280;11754;42.664;23.594;2024-02-16T11:04:17;95898.28;;;38.82;10.75
23172;BME280;11754;42.664;23.594;2024-02-16T11:06:52;95894.94;;;37.49;11.18
23172;BME280;11754;42.664;23.594;2024-02-16T11:09:29;95896.44;;;34.28;13.39
23172;BME280;11754;42.664;23.594;2024-02-16T11:11:58;95885.72;;;40.33;10.25
23172;BME280;11754;42.664;23.594;2024-02-16T11:17:46;95872.00;;;44.10;8.47
23172;BME280;11754;42.664;23.594;2024-02-16T11:20:12;95868.03;;;44.65;8.39
23172;BME280;11754;42.664;23.594;2024-02-16T11:22:38;95860.44;;;46.11;7.63
23172;BME280;11754;42.664;23.594;2024-02-16T11:25:04;95856.91;;;46.17;7.58
23172;BME280;11754;42.664;23.594;2024-02-16T11:27:31;95866.63;;;44.78;7.75
23172;BME280;11754;42.664;23.594;2024-02-16T11:29:58;95853.22;;;41.87;9.14
23172;BME280;11754;42.664;23.594;2024-02-16T11:39:45;95843.91;;;46.39;7.32
23172;BME280;11754;42.664;23.594;2024-02-16T11:42:12;95844.75;;;47.41;7.10
23172;BME280;11754;42.664;23.594;2024-02-16T11:44:49;95842.41;;;47.79;6.89
23172;BME280;11754;42.664;23.594;2024-02-16T11:47:19;95833.44;;;45.70;7.28
23172;BME280;11754;42.664;23.594;2024-02-16T11:49:45;95841.53;;;47.68;7.17
23172;BME280;11754;42.664;23.594;2024-02-16T11:52:11;95827.91;;;47.13;6.68
23172;BME280;11754;42.664;23.594;2024-02-16T11:54:37;95831.19;;;47.51;6.83
23172;BME280;11754;42.664;23.594;2024-02-16T11:57:03;95843.16;;;43.92;8.21
23172;BME280;11754;42.664;23.594;2024-02-16T12:02:59;95824.34;;;46.32;7.23
23172;BME280;11754;42.664;23.594;2024-02-16T12:05:25;95819.75;;;45.54;7.79
23172;BME280;11754;42.664;23.594;2024-02-16T12:07:50;95815.88;;;44.88;7.54
23172;BME280;11754;42.664;23.594;2024-02-16T12:10:16;95818.50;;;45.45;7.73
23172;BME280;11754;42.664;23.594;2024-02-16T12:12:42;95812.44;;;46.35;7.51
23172;BME280;11754;42.664;23.594;2024-02-16T12:15:10;95803.19;;;47.15;7.03
23172;BME280;11754;42.664;23.594;2024-02-16T12:17:42;95802.06;;;47.77;6.80
23172;BME280;11754;42.664;23.594;2024-02-16T12:20:11;95807.72;;;45.84;7.56
23172;BME280;11754;42.664;23.594;2024-02-16T12:22:40;95812.69;;;46.96;7.18
23172;BME280;11754;42.664;23.594;2024-02-16T12:25:06;95802.88;;;47.74;6.76
23172;BME280;11754;42.664;23.594;2024-02-16T12:27:32;95794.31;;;46.91;6.96
23172;BME280;11754;42.664;23.594;2024-02-16T12:29:59;95804.03;;;47.65;6.81
23172;BME280;11754;42.664;23.594;2024-02-16T12:32:24;95796.66;;;46.64;6.78
23172;BME280;11754;42.664;23.594;2024-02-16T12:34:50;95791.66;;;48.09;6.37
23172;BME280;11754;42.664;23.594;2024-02-16T12:37:15;95789.63;;;46.22;7.48
23172;BME280;11754;42.664;23.594;2024-02-16T12:39:40;95791.66;;;47.41;6.79
23172;BME280;11754;42.664;23.594;2024-02-16T12:42:06;95789.56;;;48.46;6.68
23172;BME280;11754;42.664;23.594;2024-02-16T12:44:31;95790.03;;;47.26;7.10
23172;BME280;11754;42.664;23.594;2024-02-16T12:46:57;95779.16;;;48.43;6.49
23172;BME280;11754;42.664;23.594;2024-02-16T12:49:22;95777.63;;;48.27;6.45
23172;BME280;11754;42.664;23.594;2024-02-16T12:51:51;95783.00;;;46.56;7.29
23172;BME280;11754;42.664;23.594;2024-02-16T12:54:17;95789.13;;;44.46;7.93
23172;BME280;11754;42.664;23.594;2024-02-16T12:56:46;95775.88;;;45.85;7.72
23172;BME280;11754;42.664;23.594;2024-02-16T13:02:33;95780.81;;;48.29;6.54
23172;BME280;11754;42.664;23.594;2024-02-16T13:04:59;95778.53;;;44.89;7.87
23172;BME280;11754;42.664;23.594;2024-02-16T13:07:24;95777.09;;;46.61;7.27
23172;BME280;11754;42.664;23.594;2024-02-16T13:09:50;95778.50;;;47.49;6.90
23172;BME280;11754;42.664;23.594;2024-02-16T13:12:17;95768.88;;;48.04;6.63
23172;BME280;11754;42.664;23.594;2024-02-16T13:14:42;95769.88;;;48.71;6.18
23172;BME280;11754;42.664;23.594;2024-02-16T13:17:08;95767.41;;;46.40;7.04
23172;BME280;11754;42.664;23.594;2024-02-16T13:19:33;95764.47;;;46.12;7.44
23172;BME280;11754;42.664;23.594;2024-02-16T13:21:59;95772.44;;;47.01;6.77
23172;BME280;11754;42.664;23.594;2024-02-16T13:24:24;95772.50;;;47.61;6.80
23172;BME280;11754;42.664;23.594;2024-02-16T13:26:50;95761.31;;;46.13;7.59
23172;BME280;11754;42.664;23.594;2024-02-16T13:29:15;95757.72;;;44.76;7.75
23172;BME280;11754;42.664;23.594;2024-02-16T13:31:40;95765.03;;;45.80;7.38
23172;BME280;11754;42.664;23.594;2024-02-16T13:34:07;95767.03;;;46.38;7.32
23172;BME280;11754;42.664;23.594;2024-02-16T13:36:33;95760.03;;;46.04;7.12
23172;BME280;11754;42.664;23.594;2024-02-16T13:38:58;95767.44;;;44.29;8.19
23172;BME280;11754;42.664;23.594;2024-02-16T13:41:25;95775.66;;;41.08;9.24
23172;BME280;11754;42.664;23.594;2024-02-16T13:43:50;95770.41;;;42.71;8.93
23172;BME280;11754;42.664;23.594;2024-02-16T13:46:17;95765.41;;;44.26;7.95
23172;BME280;11754;42.664;23.594;2024-02-16T13:48:42;95757.63;;;43.82;8.29
23172;BME280;11754;42.664;23.594;2024-02-16T13:51:09;95772.66;;;41.60;8.92
23172;BME280;11754;42.664;23.594;2024-02-16T13:53:38;95756.16;;;43.61;8.40
23172;BME280;11754;42.664;23.594;2024-02-16T13:56:04;95764.19;;;44.23;8.11
23172;BME280;11754;42.664;23.594;2024-02-16T13:58:31;95759.94;;;43.76;7.94
23172;BME280;11754;42.664;23.594;2024-02-16T14:00:58;95768.19;;;44.26;8.02
23172;BME280;11754;42.664;23.594;2024-02-16T14:03:27;95772.22;;;40.54;9.72
23172;BME280;11754;42.664;23.594;2024-02-16T14:05:52;95775.00;;;38.29;10.91
23172;BME280;11754;42.664;23.594;2024-02-16T14:08:18;95769.75;;;36.44;11.68
23172;BME280;11754;42.664;23.594;2024-02-16T14:10:43;95757.75;;;37.69;11.30
23172;BME280;11754;42.664;23.594;2024-02-16T14:13:09;95768.94;;;39.47;10.49
23172;BME280;11754;42.664;23.594;2024-02-16T14:15:35;95772.22;;;40.54;9.84